sensor_id;sensor_type;location;lat;lon;timestamp;temperature;humidity
24207;DHT22;12351;52.284;9.160;2022-11-11T00:01:08;10.30;99.90
24207;DHT22;12351;52.284;9.160;2022-11-11T00:03:57;10.30;99.90
24207;DHT22;12351;52.284;9.160;2022-11-11T00:06:48;10.30;99.90
24207;DHT22;12351;52.284;9.160;2022-11-11T00:09:35;10.30;99.90
24207;DHT22;12351;52.284;9.160;2022-11-11T00:12:26;10.30;99.90
24207;DHT22;12351;52.284;9.160;2022-11-11T00:15:15;10.30;99.90
24207;DHT22;12351;52.284;9.160;2022-11-11T00:18:09;10.30;99.90
24207;DHT22;12351;52.284;9.160;2022-11-11T00:21:01;10.30;99.90
24207;DHT22;12351;52.284;9.160;2022-11-11T00:23:49;10.30;99.90
24207;DHT22;12351;52.284;9.160;2022-11-11T00:26:42;10.30;99.90
24207;DHT22;12351;52.284;9.160;2022-11-11T00:29:31;10.30;99.90
24207;DHT22;12351;52.284;9.160;2022-11-11T00:32:24;10.30;99.90
24207;DHT22;12351;52.284;9.160;2022-11-11T00:35:17;10.30;99.90
24207;DHT22;12351;52.284;9.160;2022-11-11T00:38:09;10.30;99.90
24207;DHT22;12351;52.284;9.160;2022-11-11T00:40:57;10.30;99.90
24207;DHT22;12351;52.284;9.160;2022-11-11T00:43:48;10.30;99.90
24207;DHT22;12351;52.284;9.160;2022-11-11T00:46:37;10.20;99.90
24207;DHT22;12351;52.284;9.160;2022-11-11T00:49:27;10.30;99.90
24207;DHT22;12351;52.284;9.160;2022-11-11T00:52:18;10.30;99.90
24207;DHT22;12351;52.284;9.160;2022-11-11T00:55:08;10.30;99.90
24207;DHT22;12351;52.284;9.160;2022-11-11T00:57:57;10.30;99.90
24207;DHT22;12351;52.284;9.160;2022-11-11T01:00:45;10.30;99.90
24207;DHT22;12351;52.284;9.160;2022-11-11T01:03:38;10.30;99.90
24207;DHT22;12351;52.284;9.160;2022-11-11T01:06:26;10.30;99.90
24207;DHT22;12351;52.284;9.160;2022-11-11T01:09:18;10.30;99.90
24207;DHT22;12351;52.284;9.160;2022-11-11T01:12:09;10.30;99.90
24207;DHT22;12351;52.284;9.160;2022-11-11T01:14:59;10.30;99.90
24207;DHT22;12351;52.284;9.160;2022-11-11T01:17:51;10.30;99.90
24207;DHT22;12351;52.284;9.160;2022-11-11T01:20:41;10.30;99.90
24207;DHT22;12351;52.284;9.160;2022-11-11T01:23:35;10.30;99.90
24207;DHT22;12351;52.284;9.160;2022-11-11T01:26:27;10.30;99.90
24207;DHT22;12351;52.284;9.160;2022-11-11T01:29:15;10.30;99.90
24207;DHT22;12351;52.284;9.160;2022-11-11T01:32:06;10.30;99.90
24207;DHT22;12351;52.284;9.160;2022-11-11T01:34:59;10.30;99.90
24207;DHT22;12351;52.284;9.160;2022-11-11T01:37:49;10.30;99.90
24207;DHT22;12351;52.284;9.160;2022-11-11T01:40:41;10.20;99.90
24207;DHT22;12351;52.284;9.160;2022-11-11T01:43:28;10.30;99.90
24207;DHT22;12351;52.284;9.160;2022-11-11T01:46:22;10.30;99.90
24207;DHT22;12351;52.284;9.160;2022-11-11T01:52:04;10.30;99.90
24207;DHT22;12351;52.284;9.160;2022-11-11T01:54:52;10.30;99.90
24207;DHT22;12351;52.284;9.160;2022-11-11T01:57:44;10.30;99.90
24207;DHT22;12351;52.284;9.160;2022-11-11T02:00:32;10.30;99.90
24207;DHT22;12351;52.284;9.160;2022-11-11T02:03:24;10.30;99.90
24207;DHT22;12351;52.284;9.160;2022-11-11T02:06:12;10.30;99.90
24207;DHT22;12351;52.284;9.160;2022-11-11T02:09:05;10.30;99.90
24207;DHT22;12351;52.284;9.160;2022-11-11T02:11:55;10.30;99.90
24207;DHT22;12351;52.284;9.160;2022-11-11T02:14:48;10.20;99.90
24207;DHT22;12351;52.284;9.160;2022-11-11T02:17:36;10.20;99.90
24207;DHT22;12351;52.284;9.160;2022-11-11T02:20:28;10.20;99.90
24207;DHT22;12351;52.284;9.160;2022-11-11T02:26:08;10.20;99.90
24207;DHT22;12351;52.284;9.160;2022-11-11T02:29:02;10.20;99.90
24207;DHT22;12351;52.284;9.160;2022-11-11T02:31:51;10.20;99.90
24207;DHT22;12351;52.284;9.160;2022-11-11T02:34:42;10.20;99.90
24207;DHT22;12351;52.284;9.160;2022-11-11T02:37:31;10.20;99.90
24207;DHT22;12351;52.284;9.160;2022-11-11T02:43:11;10.20;99.90
24207;DHT22;12351;52.284;9.160;2022-11-11T02:46:05;10.10;99.90
24207;DHT22;12351;52.284;9.160;2022-11-11T02:48:57;10.10;99.90
24207;DHT22;12351;52.284;9.160;2022-11-11T02:51:48;10.20;99.90
24207;DHT22;12351;52.284;9.160;2022-11-11T02:54:37;10.20;99.90
24207;DHT22;12351;52.284;9.160;2022-11-11T02:57:29;10.10;99.90
24207;DHT22;12351;52.284;9.160;2022-11-11T03:00:23;10.10;99.90
24207;DHT22;12351;52.284;9.160;2022-11-11T03:03:12;10.10;99.90
24207;DHT22;12351;52.284;9.160;2022-11-11T03:06:05;10.10;99.90
24207;DHT22;12351;52.284;9.160;2022-11-11T03:08:56;10.10;99.90
24207;DHT22;12351;52.284;9.160;2022-11-11T03:11:46;10.10;99.90
24207;DHT22;12351;52.284;9.160;2022-11-11T03:14:35;10.10;99.90
24207;DHT22;12351;52.284;9.160;2022-11-11T03:17:26;10.10;99.90
24207;DHT22;12351;52.284;9.160;2022-11-11T03:20:16;10.10;99.90
24207;DHT22;12351;52.284;9.160;2022-11-11T03:23:08;10.20;99.90
24207;DHT22;12351;52.284;9.160;2022-11-11T03:25:57;10.10;99.90
24207;DHT22;12351;52.284;9.160;2022-11-11T03:28:45;10.10;99.90
24207;DHT22;12351;52.284;9.160;2022-11-11T03:31:36;10.10;99.90
24207;DHT22;12351;52.284;9.160;2022-11-11T03:34:27;10.10;99.90
24207;DHT22;12351;52.284;9.160;2022-11-11T03:37:19;10.10;99.90
24207;DHT22;12351;52.284;9.160;2022-11-11T03:40:12;10.10;99.90
24207;DHT22;12351;52.284;9.160;2022-11-11T03:43:03;10.10;99.90
24207;DHT22;12351;52.284;9.160;2022-11-11T03:45:54;10.10;99.90
24207;DHT22;12351;52.284;9.160;2022-11-11T03:48:47;10.10;99.90
24207;DHT22;12351;52.284;9.160;2022-11-11T03:51:36;10.10;99.90
24207;DHT22;12351;52.284;9.160;2022-11-11T03:54:26;10.10;99.90
24207;DHT22;12351;52.284;9.160;2022-11-11T03:57:16;10.10;99.90
24207;DHT22;12351;52.284;9.160;2022-11-11T04:00:08;10.10;99.90
24207;DHT22;12351;52.284;9.160;2022-11-11T04:05:50;10.10;99.90
24207;DHT22;12351;52.284;9.160;2022-11-11T04:08:43;10.10;99.90
24207;DHT22;12351;52.284;9.160;2022-11-11T04:14:27;10.10;99.90
24207;DHT22;12351;52.284;9.160;2022-11-11T04:17:16;10.10;99.90
24207;DHT22;12351;52.284;9.160;2022-11-11T04:20:06;10.10;99.90
24207;DHT22;12351;52.284;9.160;2022-11-11T04:23:00;10.10;99.90
24207;DHT22;12351;52.284;9.160;2022-11-11T04:25:49;10.10;99.90
24207;DHT22;12351;52.284;9.160;2022-11-11T04:28:41;10.10;99.90
24207;DHT22;12351;52.284;9.160;2022-11-11T04:31:31;10.00;99.90
24207;DHT22;12351;52.284;9.160;2022-11-11T04:34:22;10.00;99.90
24207;DHT22;12351;52.284;9.160;2022-11-11T04:37:12;10.00;99.90
24207;DHT22;12351;52.284;9.160;2022-11-11T04:40:02;10.00;99.90
24207;DHT22;12351;52.284;9.160;2022-11-11T04:42:54;10.00;99.90
24207;DHT22;12351;52.284;9.160;2022-11-11T04:45:43;10.00;99.90
24207;DHT22;12351;52.284;9.160;2022-11-11T04:48:35;10.00;99.90
24207;DHT22;12351;52.284;9.160;2022-11-11T04:51:25;10.00;99.90
24207;DHT22;12351;52.284;9.160;2022-11-11T04:54:15;10.00;99.90
24207;DHT22;12351;52.284;9.160;2022-11-11T04:57:07;9.90;99.90
24207;DHT22;12351;52.284;9.160;2022-11-11T05:00:00;10.00;99.90
24207;DHT22;12351;52.284;9.160;2022-11-11T05:02:52;10.00;99.90
24207;DHT22;12351;52.284;9.160;2022-11-11T05:05:42;10.00;99.90
24207;DHT22;12351;52.284;9.160;2022-11-11T05:08:32;10.00;99.90
24207;DHT22;12351;52.284;9.160;2022-11-11T05:11:25;10.00;99.90
24207;DHT22;12351;52.284;9.160;2022-11-11T05:14:12;10.00;99.90
24207;DHT22;12351;52.284;9.160;2022-11-11T05:17:05;10.00;99.90
24207;DHT22;12351;52.284;9.160;2022-11-11T05:19:55;10.00;99.90
24207;DHT22;12351;52.284;9.160;2022-11-11T05:22:46;10.00;99.90
24207;DHT22;12351;52.284;9.160;2022-11-11T05:25:37;10.00;99.90
24207;DHT22;12351;52.284;9.160;2022-11-11T05:28:28;10.00;99.90
24207;DHT22;12351;52.284;9.160;2022-11-11T05:31:19;10.00;99.90
24207;DHT22;12351;52.284;9.160;2022-11-11T05:34:08;9.90;99.90
24207;DHT22;12351;52.284;9.160;2022-11-11T05:36:59;10.00;99.90
24207;DHT22;12351;52.284;9.160;2022-11-11T05:39:50;10.00;99.90
24207;DHT22;12351;52.284;9.160;2022-11-11T05:42:42;10.00;99.90
24207;DHT22;12351;52.284;9.160;2022-11-11T05:45:32;10.00;99.90
24207;DHT22;12351;52.284;9.160;2022-11-11T05:48:21;10.00;99.90
24207;DHT22;12351;52.284;9.160;2022-11-11T05:51:13;9.90;99.90
24207;DHT22;12351;52.284;9.160;2022-11-11T05:54:04;9.90;99.90
24207;DHT22;12351;52.284;9.160;2022-11-11T05:56:57;10.00;99.90
24207;DHT22;12351;52.284;9.160;2022-11-11T05:59:46;9.90;99.90
24207;DHT22;12351;52.284;9.160;2022-11-11T06:02:36;9.90;99.90
24207;DHT22;12351;52.284;9.160;2022-11-11T06:05:27;9.90;99.90
24207;DHT22;12351;52.284;9.160;2022-11-11T06:08:16;9.90;99.90
24207;DHT22;12351;52.284;9.160;2022-11-11T06:11:06;9.90;99.90
24207;DHT22;12351;52.284;9.160;2022-11-11T06:14:00;9.90;99.90
24207;DHT22;12351;52.284;9.160;2022-11-11T06:16:50;9.90;99.90
24207;DHT22;12351;52.284;9.160;2022-11-11T06:19:40;10.00;99.90
24207;DHT22;12351;52.284;9.160;2022-11-11T06:22:32;10.00;99.90
24207;DHT22;12351;52.284;9.160;2022-11-11T06:25:24;9.90;99.90
24207;DHT22;12351;52.284;9.160;2022-11-11T06:28:14;9.90;99.90
24207;DHT22;12351;52.284;9.160;2022-11-11T06:31:03;9.90;99.90
24207;DHT22;12351;52.284;9.160;2022-11-11T06:33:56;9.90;99.90
24207;DHT22;12351;52.284;9.160;2022-11-11T06:36:46;9.90;99.90
24207;DHT22;12351;52.284;9.160;2022-11-11T06:39:36;9.90;99.90
24207;DHT22;12351;52.284;9.160;2022-11-11T06:42:27;9.90;99.90
24207;DHT22;12351;52.284;9.160;2022-11-11T06:45:16;9.90;99.90
24207;DHT22;12351;52.284;9.160;2022-11-11T06:48:06;9.90;99.90
24207;DHT22;12351;52.284;9.160;2022-11-11T06:51:02;9.90;99.90
24207;DHT22;12351;52.284;9.160;2022-11-11T06:53:47;9.90;99.90
24207;DHT22;12351;52.284;9.160;2022-11-11T06:56:37;9.90;99.90
24207;DHT22;12351;52.284;9.160;2022-11-11T06:59:25;9.90;99.90
24207;DHT22;12351;52.284;9.160;2022-11-11T07:02:16;9.90;99.90
24207;DHT22;12351;52.284;9.160;2022-11-11T07:05:11;9.90;99.90
24207;DHT22;12351;52.284;9.160;2022-11-11T07:08:03;9.90;99.90
24207;DHT22;12351;52.284;9.160;2022-11-11T07:10:51;9.90;99.90
24207;DHT22;12351;52.284;9.160;2022-11-11T07:13:42;10.00;99.90
24207;DHT22;12351;52.284;9.160;2022-11-11T07:16:33;10.00;99.90
24207;DHT22;12351;52.284;9.160;2022-11-11T07:19:25;10.00;99.90
24207;DHT22;12351;52.284;9.160;2022-11-11T07:22:18;10.00;99.90
24207;DHT22;12351;52.284;9.160;2022-11-11T07:25:11;10.00;99.90
24207;DHT22;12351;52.284;9.160;2022-11-11T07:28:01;10.00;99.90
24207;DHT22;12351;52.284;9.160;2022-11-11T07:30:48;10.00;99.90
24207;DHT22;12351;52.284;9.160;2022-11-11T07:33:37;10.00;99.90
24207;DHT22;12351;52.284;9.160;2022-11-11T07:36:27;10.10;99.90
24207;DHT22;12351;52.284;9.160;2022-11-11T07:39:15;10.10;99.90
24207;DHT22;12351;52.284;9.160;2022-11-11T07:42:05;10.10;99.90
24207;DHT22;12351;52.284;9.160;2022-11-11T07:44:58;10.10;99.90
24207;DHT22;12351;52.284;9.160;2022-11-11T07:47:48;10.10;99.90
24207;DHT22;12351;52.284;9.160;2022-11-11T07:50:39;10.20;99.90
24207;DHT22;12351;52.284;9.160;2022-11-11T07:53:29;10.20;99.90
24207;DHT22;12351;52.284;9.160;2022-11-11T07:56:21;10.20;99.90
24207;DHT22;12351;52.284;9.160;2022-11-11T07:59:10;10.30;99.90
24207;DHT22;12351;52.284;9.160;2022-11-11T08:02:01;10.30;99.90
24207;DHT22;12351;52.284;9.160;2022-11-11T08:04:50;10.30;99.90
24207;DHT22;12351;52.284;9.160;2022-11-11T08:07:40;10.40;99.90
24207;DHT22;12351;52.284;9.160;2022-11-11T08:10:32;10.40;99.90
24207;DHT22;12351;52.284;9.160;2022-11-11T08:13:23;10.40;99.90
24207;DHT22;12351;52.284;9.160;2022-11-11T08:16:15;10.50;99.90
24207;DHT22;12351;52.284;9.160;2022-11-11T08:19:10;10.50;99.90
24207;DHT22;12351;52.284;9.160;2022-11-11T08:21:58;10.60;99.90
24207;DHT22;12351;52.284;9.160;2022-11-11T08:24:45;10.60;99.90
24207;DHT22;12351;52.284;9.160;2022-11-11T08:27:33;10.60;99.90
24207;DHT22;12351;52.284;9.160;2022-11-11T08:30:20;10.60;99.90
24207;DHT22;12351;52.284;9.160;2022-11-11T08:33:07;10.60;99.90
24207;DHT22;12351;52.284;9.160;2022-11-11T08:35:57;10.60;99.90
24207;DHT22;12351;52.284;9.160;2022-11-11T08:38:45;10.70;99.90
24207;DHT22;12351;52.284;9.160;2022-11-11T08:41:32;10.70;99.90
24207;DHT22;12351;52.284;9.160;2022-11-11T08:44:19;10.70;99.90
24207;DHT22;12351;52.284;9.160;2022-11-11T08:47:06;10.70;99.90
24207;DHT22;12351;52.284;9.160;2022-11-11T08:49:53;10.80;99.90
24207;DHT22;12351;52.284;9.160;2022-11-11T08:55:29;10.80;99.90
24207;DHT22;12351;52.284;9.160;2022-11-11T08:58:17;10.90;99.90
24207;DHT22;12351;52.284;9.160;2022-11-11T09:01:04;10.90;99.90
24207;DHT22;12351;52.284;9.160;2022-11-11T09:03:54;10.90;99.90
24207;DHT22;12351;52.284;9.160;2022-11-11T09:06:41;11.00;99.90
24207;DHT22;12351;52.284;9.160;2022-11-11T09:09:29;11.00;99.90
24207;DHT22;12351;52.284;9.160;2022-11-11T09:12:16;11.00;99.90
24207;DHT22;12351;52.284;9.160;2022-11-11T09:15:04;11.10;99.90
24207;DHT22;12351;52.284;9.160;2022-11-11T09:17:51;11.10;99.90
24207;DHT22;12351;52.284;9.160;2022-11-11T09:20:38;11.20;99.90
24207;DHT22;12351;52.284;9.160;2022-11-11T09:23:26;11.20;99.90
24207;DHT22;12351;52.284;9.160;2022-11-11T09:26:12;11.20;99.90
24207;DHT22;12351;52.284;9.160;2022-11-11T09:29:00;11.30;99.90
24207;DHT22;12351;52.284;9.160;2022-11-11T12:15:16;14.20;99.90
24207;DHT22;12351;52.284;9.160;2022-11-11T12:18:12;14.20;99.90
24207;DHT22;12351;52.284;9.160;2022-11-11T12:20:58;14.30;99.90
24207;DHT22;12351;52.284;9.160;2022-11-11T12:46:17;14.70;99.90
24207;DHT22;12351;52.284;9.160;2022-11-11T13:00:26;14.70;99.90
24207;DHT22;12351;52.284;9.160;2022-11-11T13:12:00;14.90;99.90
24207;DHT22;12351;52.284;9.160;2022-11-11T13:14:36;14.90;99.90
24207;DHT22;12351;52.284;9.160;2022-11-11T13:17:21;14.80;99.90
24207;DHT22;12351;52.284;9.160;2022-11-11T13:20:34;14.80;99.90
24207;DHT22;12351;52.284;9.160;2022-11-11T13:22:59;14.90;99.90
24207;DHT22;12351;52.284;9.160;2022-11-11T13:25:49;14.80;99.90
24207;DHT22;12351;52.284;9.160;2022-11-11T13:28:39;14.70;99.90
24207;DHT22;12351;52.284;9.160;2022-11-11T13:34:17;14.80;99.90
24207;DHT22;12351;52.284;9.160;2022-11-11T13:37:08;14.90;99.90
24207;DHT22;12351;52.284;9.160;2022-11-11T13:40:01;14.90;99.90
24207;DHT22;12351;52.284;9.160;2022-11-11T13:42:49;14.80;99.90
24207;DHT22;12351;52.284;9.160;2022-11-11T13:45:40;14.80;99.90
24207;DHT22;12351;52.284;9.160;2022-11-11T13:48:33;14.80;99.90
24207;DHT22;12351;52.284;9.160;2022-11-11T13:51:24;14.90;99.90
24207;DHT22;12351;52.284;9.160;2022-11-11T13:54:19;14.90;99.90
24207;DHT22;12351;52.284;9.160;2022-11-11T13:57:15;14.90;99.90
24207;DHT22;12351;52.284;9.160;2022-11-11T14:05:41;14.80;99.90
24207;DHT22;12351;52.284;9.160;2022-11-11T14:17:11;14.80;99.90
24207;DHT22;12351;52.284;9.160;2022-11-11T14:19:56;14.80;99.90
24207;DHT22;12351;52.284;9.160;2022-11-11T14:22:46;14.80;99.90
24207;DHT22;12351;52.284;9.160;2022-11-11T14:25:36;14.70;99.90
24207;DHT22;12351;52.284;9.160;2022-11-11T14:28:25;14.70;99.90
24207;DHT22;12351;52.284;9.160;2022-11-11T14:36:58;14.60;99.90
24207;DHT22;12351;52.284;9.160;2022-11-11T14:39:49;14.60;99.90
24207;DHT22;12351;52.284;9.160;2022-11-11T14:50:59;14.40;99.90
24207;DHT22;12351;52.284;9.160;2022-11-11T14:53:46;14.30;99.90
24207;DHT22;12351;52.284;9.160;2022-11-11T14:56:34;14.30;99.90
24207;DHT22;12351;52.284;9.160;2022-11-11T14:59:22;14.20;99.90
24207;DHT22;12351;52.284;9.160;2022-11-11T15:02:17;14.20;99.90
24207;DHT22;12351;52.284;9.160;2022-11-11T15:05:04;14.20;99.90
24207;DHT22;12351;52.284;9.160;2022-11-11T15:30:17;13.80;99.90
24207;DHT22;12351;52.284;9.160;2022-11-11T15:33:10;13.70;99.90
24207;DHT22;12351;52.284;9.160;2022-11-11T15:38:49;13.60;99.90
24207;DHT22;12351;52.284;9.160;2022-11-11T15:41:39;13.50;99.90
24207;DHT22;12351;52.284;9.160;2022-11-11T15:44:30;13.50;99.90
24207;DHT22;12351;52.284;9.160;2022-11-11T15:47:19;13.40;99.90
24207;DHT22;12351;52.284;9.160;2022-11-11T15:53:09;13.40;99.90
24207;DHT22;12351;52.284;9.160;2022-11-11T15:55:56;13.40;99.90
24207;DHT22;12351;52.284;9.160;2022-11-11T15:58:45;13.40;99.90
24207;DHT22;12351;52.284;9.160;2022-11-11T16:01:33;13.40;99.90
24207;DHT22;12351;52.284;9.160;2022-11-11T16:04:23;13.40;99.90
24207;DHT22;12351;52.284;9.160;2022-11-11T16:07:15;13.30;99.90
24207;DHT22;12351;52.284;9.160;2022-11-11T16:18:17;13.30;99.90
24207;DHT22;12351;52.284;9.160;2022-11-11T16:23:56;13.30;99.90
24207;DHT22;12351;52.284;9.160;2022-11-11T16:26:45;13.30;99.90
24207;DHT22;12351;52.284;9.160;2022-11-11T16:29:37;13.30;99.90
24207;DHT22;12351;52.284;9.160;2022-11-11T16:37:57;13.20;99.90
24207;DHT22;12351;52.284;9.160;2022-11-11T16:40:45;13.20;99.90
24207;DHT22;12351;52.284;9.160;2022-11-11T16:43:34;13.20;99.90
24207;DHT22;12351;52.284;9.160;2022-11-11T16:51:53;13.10;99.90
24207;DHT22;12351;52.284;9.160;2022-11-11T16:57:32;13.10;99.90
24207;DHT22;12351;52.284;9.160;2022-11-11T17:00:22;13.20;99.90
24207;DHT22;12351;52.284;9.160;2022-11-11T17:06:06;13.10;99.90
24207;DHT22;12351;52.284;9.160;2022-11-11T17:08:54;13.10;99.90
24207;DHT22;12351;52.284;9.160;2022-11-11T17:11:44;13.10;99.90
24207;DHT22;12351;52.284;9.160;2022-11-11T17:14:33;13.10;99.90
24207;DHT22;12351;52.284;9.160;2022-11-11T17:17:21;13.10;99.90
24207;DHT22;12351;52.284;9.160;2022-11-11T17:20:11;13.00;99.90
24207;DHT22;12351;52.284;9.160;2022-11-11T17:22:59;13.00;99.90
24207;DHT22;12351;52.284;9.160;2022-11-11T17:25:48;13.00;99.90
24207;DHT22;12351;52.284;9.160;2022-11-11T17:28:36;13.00;99.90
24207;DHT22;12351;52.284;9.160;2022-11-11T17:31:24;13.00;99.90
24207;DHT22;12351;52.284;9.160;2022-11-11T17:34:11;13.00;99.90
24207;DHT22;12351;52.284;9.160;2022-11-11T17:36:58;13.00;99.90
24207;DHT22;12351;52.284;9.160;2022-11-11T17:39:45;12.90;99.90
24207;DHT22;12351;52.284;9.160;2022-11-11T17:42:33;12.90;99.90
24207;DHT22;12351;52.284;9.160;2022-11-11T17:45:20;12.90;99.90
24207;DHT22;12351;52.284;9.160;2022-11-11T17:48:08;12.90;99.90
24207;DHT22;12351;52.284;9.160;2022-11-11T17:50:55;12.90;99.90
24207;DHT22;12351;52.284;9.160;2022-11-11T17:53:43;12.80;99.90
24207;DHT22;12351;52.284;9.160;2022-11-11T17:56:30;12.80;99.90
24207;DHT22;12351;52.284;9.160;2022-11-11T17:59:17;12.80;99.90
24207;DHT22;12351;52.284;9.160;2022-11-11T18:02:04;12.80;99.90
24207;DHT22;12351;52.284;9.160;2022-11-11T18:04:51;12.80;99.90
24207;DHT22;12351;52.284;9.160;2022-11-11T18:07:40;12.80;99.90
24207;DHT22;12351;52.284;9.160;2022-11-11T18:10:27;12.80;99.90
24207;DHT22;12351;52.284;9.160;2022-11-11T18:13:14;12.70;99.90
24207;DHT22;12351;52.284;9.160;2022-11-11T18:16:01;12.70;99.90
24207;DHT22;12351;52.284;9.160;2022-11-11T18:18:51;12.70;99.90
24207;DHT22;12351;52.284;9.160;2022-11-11T18:21:39;12.80;99.90
24207;DHT22;12351;52.284;9.160;2022-11-11T18:24:27;12.70;99.90
24207;DHT22;12351;52.284;9.160;2022-11-11T18:27:15;12.70;99.90
24207;DHT22;12351;52.284;9.160;2022-11-11T18:30:02;12.80;99.90
24207;DHT22;12351;52.284;9.160;2022-11-11T18:32:54;12.70;99.90
24207;DHT22;12351;52.284;9.160;2022-11-11T18:35:41;12.70;99.90
24207;DHT22;12351;52.284;9.160;2022-11-11T18:38:29;12.70;99.90
24207;DHT22;12351;52.284;9.160;2022-11-11T18:41:18;12.60;99.90
24207;DHT22;12351;52.284;9.160;2022-11-11T18:44:06;12.70;99.90
24207;DHT22;12351;52.284;9.160;2022-11-11T18:46:54;12.60;99.90
24207;DHT22;12351;52.284;9.160;2022-11-11T18:49:42;12.60;99.90
24207;DHT22;12351;52.284;9.160;2022-11-11T18:52:30;12.60;99.90
24207;DHT22;12351;52.284;9.160;2022-11-11T18:55:18;12.60;99.90
24207;DHT22;12351;52.284;9.160;2022-11-11T18:58:05;12.50;99.90
24207;DHT22;12351;52.284;9.160;2022-11-11T19:00:52;12.60;99.90
24207;DHT22;12351;52.284;9.160;2022-11-11T19:03:40;12.60;99.90
24207;DHT22;12351;52.284;9.160;2022-11-11T19:06:28;12.50;99.90
24207;DHT22;12351;52.284;9.160;2022-11-11T19:09:15;12.60;99.90
24207;DHT22;12351;52.284;9.160;2022-11-11T19:12:02;12.50;99.90
24207;DHT22;12351;52.284;9.160;2022-11-11T19:14:49;12.50;99.90
24207;DHT22;12351;52.284;9.160;2022-11-11T19:17:36;12.50;99.90
24207;DHT22;12351;52.284;9.160;2022-11-11T19:20:26;12.50;99.90
24207;DHT22;12351;52.284;9.160;2022-11-11T19:23:13;12.50;99.90
24207;DHT22;12351;52.284;9.160;2022-11-11T19:26:00;12.40;99.90
24207;DHT22;12351;52.284;9.160;2022-11-11T19:28:47;12.40;99.90
24207;DHT22;12351;52.284;9.160;2022-11-11T19:31:36;12.50;99.90
24207;DHT22;12351;52.284;9.160;2022-11-11T19:34:23;12.40;99.90
24207;DHT22;12351;52.284;9.160;2022-11-11T19:37:11;12.50;99.90
24207;DHT22;12351;52.284;9.160;2022-11-11T19:39:59;12.50;99.90
24207;DHT22;12351;52.284;9.160;2022-11-11T19:42:48;12.50;99.90
24207;DHT22;12351;52.284;9.160;2022-11-11T19:45:36;12.50;99.90
24207;DHT22;12351;52.284;9.160;2022-11-11T19:48:24;12.50;99.90
24207;DHT22;12351;52.284;9.160;2022-11-11T19:51:14;12.50;99.90
24207;DHT22;12351;52.284;9.160;2022-11-11T19:54:01;12.40;99.90
24207;DHT22;12351;52.284;9.160;2022-11-11T19:56:48;12.40;99.90
24207;DHT22;12351;52.284;9.160;2022-11-11T19:59:35;12.40;99.90
24207;DHT22;12351;52.284;9.160;2022-11-11T20:02:24;12.40;99.90
24207;DHT22;12351;52.284;9.160;2022-11-11T20:05:10;12.40;99.90
24207;DHT22;12351;52.284;9.160;2022-11-11T20:07:59;12.40;99.90
24207;DHT22;12351;52.284;9.160;2022-11-11T20:10:46;12.40;99.90
24207;DHT22;12351;52.284;9.160;2022-11-11T20:13:34;12.40;99.90
24207;DHT22;12351;52.284;9.160;2022-11-11T20:16:21;12.40;99.90
24207;DHT22;12351;52.284;9.160;2022-11-11T20:19:08;12.40;99.90
24207;DHT22;12351;52.284;9.160;2022-11-11T20:21:55;12.40;99.90
24207;DHT22;12351;52.284;9.160;2022-11-11T20:24:42;12.40;99.90
24207;DHT22;12351;52.284;9.160;2022-11-11T20:27:30;12.40;99.90
24207;DHT22;12351;52.284;9.160;2022-11-11T20:30:17;12.40;99.90
24207;DHT22;12351;52.284;9.160;2022-11-11T20:33:04;12.40;99.90
24207;DHT22;12351;52.284;9.160;2022-11-11T20:35:51;12.40;99.90
24207;DHT22;12351;52.284;9.160;2022-11-11T20:38:38;12.40;99.90
24207;DHT22;12351;52.284;9.160;2022-11-11T20:41:26;12.30;99.90
24207;DHT22;12351;52.284;9.160;2022-11-11T20:44:13;12.30;99.90
24207;DHT22;12351;52.284;9.160;2022-11-11T20:47:00;12.30;99.90
24207;DHT22;12351;52.284;9.160;2022-11-11T20:49:47;12.30;99.90
24207;DHT22;12351;52.284;9.160;2022-11-11T20:52:34;12.30;99.90
24207;DHT22;12351;52.284;9.160;2022-11-11T20:55:21;12.30;99.90
24207;DHT22;12351;52.284;9.160;2022-11-11T20:58:08;12.30;99.90
24207;DHT22;12351;52.284;9.160;2022-11-11T21:03:45;12.30;99.90
24207;DHT22;12351;52.284;9.160;2022-11-11T21:06:32;12.30;99.90
24207;DHT22;12351;52.284;9.160;2022-11-11T21:09:21;12.30;99.90
24207;DHT22;12351;52.284;9.160;2022-11-11T21:12:08;12.20;99.90
24207;DHT22;12351;52.284;9.160;2022-11-11T21:14:55;12.20;99.90
24207;DHT22;12351;52.284;9.160;2022-11-11T21:17:44;12.30;99.90
24207;DHT22;12351;52.284;9.160;2022-11-11T21:20:31;12.20;99.90
24207;DHT22;12351;52.284;9.160;2022-11-11T21:23:18;12.20;99.90
24207;DHT22;12351;52.284;9.160;2022-11-11T21:26:08;12.30;99.90
24207;DHT22;12351;52.284;9.160;2022-11-11T21:31:46;12.30;99.90
24207;DHT22;12351;52.284;9.160;2022-11-11T21:34:33;12.20;99.90
24207;DHT22;12351;52.284;9.160;2022-11-11T21:37:21;12.20;99.90
24207;DHT22;12351;52.284;9.160;2022-11-11T21:40:09;12.20;99.90
24207;DHT22;12351;52.284;9.160;2022-11-11T21:42:56;12.30;99.90
24207;DHT22;12351;52.284;9.160;2022-11-11T21:45:43;12.30;99.90
24207;DHT22;12351;52.284;9.160;2022-11-11T21:48:31;12.30;99.90
24207;DHT22;12351;52.284;9.160;2022-11-11T21:54:09;12.30;99.90
24207;DHT22;12351;52.284;9.160;2022-11-11T21:56:56;12.30;99.90
24207;DHT22;12351;52.284;9.160;2022-11-11T21:59:44;12.20;99.90
24207;DHT22;12351;52.284;9.160;2022-11-11T22:02:31;12.20;99.90
24207;DHT22;12351;52.284;9.160;2022-11-11T22:05:18;12.30;99.90
24207;DHT22;12351;52.284;9.160;2022-11-11T22:08:05;12.30;99.90
24207;DHT22;12351;52.284;9.160;2022-11-11T22:10:52;12.30;99.90
24207;DHT22;12351;52.284;9.160;2022-11-11T22:13:40;12.30;99.90
24207;DHT22;12351;52.284;9.160;2022-11-11T22:16:29;12.30;99.90
24207;DHT22;12351;52.284;9.160;2022-11-11T22:19:17;12.30;99.90
24207;DHT22;12351;52.284;9.160;2022-11-11T22:22:04;12.30;99.90
24207;DHT22;12351;52.284;9.160;2022-11-11T22:24:51;12.30;99.90
24207;DHT22;12351;52.284;9.160;2022-11-11T22:27:38;12.30;99.90
24207;DHT22;12351;52.284;9.160;2022-11-11T22:30:26;12.20;99.90
24207;DHT22;12351;52.284;9.160;2022-11-11T22:33:13;12.20;99.90
24207;DHT22;12351;52.284;9.160;2022-11-11T22:36:02;12.30;99.90
24207;DHT22;12351;52.284;9.160;2022-11-11T22:38:49;12.30;99.90
24207;DHT22;12351;52.284;9.160;2022-11-11T22:41:39;12.30;99.90
24207;DHT22;12351;52.284;9.160;2022-11-11T22:44:26;12.30;99.90
24207;DHT22;12351;52.284;9.160;2022-11-11T22:47:13;12.20;99.90
24207;DHT22;12351;52.284;9.160;2022-11-11T22:50:00;12.20;99.90
24207;DHT22;12351;52.284;9.160;2022-11-11T22:52:48;12.10;99.90
24207;DHT22;12351;52.284;9.160;2022-11-11T22:55:36;12.20;99.90
24207;DHT22;12351;52.284;9.160;2022-11-11T22:58:24;12.10;99.90
24207;DHT22;12351;52.284;9.160;2022-11-11T23:03:52;12.10;99.90
24207;DHT22;12351;52.284;9.160;2022-11-11T23:06:39;12.10;99.90
24207;DHT22;12351;52.284;9.160;2022-11-11T23:09:28;12.00;99.90
24207;DHT22;12351;52.284;9.160;2022-11-11T23:12:16;12.00;99.90